Time;durP1;ratioP1;P1;durP2;ratioP2;P2;SDS_P1;SDS_P2;PMS_P1;PMS_P2;Temp;Humidity;BMP_temperature;BMP_pressure;BME280_temperature;BME280_humidity;BME280_pressure;Samples;Min_cycle;Max_cycle;Signal;HPM_P1;HPM_P2
2021/07/31 00:02:10;;;;;;;;;3.00;2.67;;;;;18.70;55.54;100830.19;5035154;28;45426;-66
2021/07/31 00:04:36;;;;;;;;;3.33;2.00;;;;;18.75;54.55;100830.50;5034941;28;45581;-68
2021/07/31 00:07:01;;;;;;;;;2.00;2.00;;;;;18.72;53.92;100837.00;5034715;28;46300;-68
2021/07/31 00:09:26;;;;;;;;;2.00;0.00;;;;;18.66;53.78;100837.66;5034689;28;45515;-69
2021/07/31 00:11:52;;;;;;;;;1.67;1.67;;;;;18.61;54.68;100840.78;5035147;28;45428;-68
2021/07/31 00:14:18;;;;;;;;;6.00;2.33;;;;;18.59;54.06;100842.78;5034688;28;45558;-68
2021/07/31 00:16:43;;;;;;;;;2.33;2.33;;;;;18.57;55.28;100838.63;5033624;28;50285;-70
2021/07/31 00:19:09;;;;;;;;;2.00;2.00;;;;;18.61;54.42;100837.31;5034338;28;45436;-69
2021/07/31 00:21:34;;;;;;;;;2.00;2.00;;;;;18.61;54.24;100835.47;5023175;28;45848;-68
2021/07/31 00:23:59;;;;;;;;;2.00;2.00;;;;;18.57;54.07;100839.47;5030208;28;45554;-68
2021/07/31 00:26:25;;;;;;;;;2.00;2.00;;;;;18.47;53.74;100849.41;5034863;28;46240;-68
2021/07/31 00:28:50;;;;;;;;;0.00;0.00;;;;;18.38;53.69;100847.72;5033956;28;45744;-69
2021/07/31 00:31:15;;;;;;;;;1.33;0.67;;;;;18.33;53.89;100850.03;5034942;28;45604;-68
2021/07/31 00:33:41;;;;;;;;;0.67;0.67;;;;;18.29;54.27;100845.06;5030452;28;45496;-68
2021/07/31 00:36:06;;;;;;;;;3.67;1.33;;;;;18.30;54.04;100848.53;5035348;28;46008;-68
2021/07/31 00:38:31;;;;;;;;;2.67;1.00;;;;;18.28;54.51;100851.38;5034662;28;58579;-68
2021/07/31 00:40:57;;;;;;;;;2.00;1.00;;;;;18.28;54.25;100843.38;5034662;28;48138;-69
2021/07/31 00:43:22;;;;;;;;;1.00;1.00;;;;;18.25;54.48;100848.19;5033495;28;45676;-69
2021/07/31 00:45:47;;;;;;;;;3.67;2.00;;;;;18.20;55.82;100848.69;5033184;28;47517;-69
2021/07/31 00:48:13;;;;;;;;;1.00;1.00;;;;;18.22;54.57;100846.69;5029441;28;45528;-70
2021/07/31 00:50:39;;;;;;;;;0.67;0.67;;;;;18.18;54.55;100855.97;5034709;28;45623;-67
2021/07/31 00:53:04;;;;;;;;;2.00;0.67;;;;;18.15;54.70;100843.03;5032062;28;45929;-69
2021/07/31 00:55:31;;;;;;;;;2.00;2.00;;;;;18.16;55.29;100849.97;5033882;28;46041;-67
2021/07/31 00:57:57;;;;;;;;;1.67;1.00;;;;;18.17;54.97;100843.69;5035940;28;45574;-67
2021/07/31 01:00:23;;;;;;;;;2.67;1.33;;;;;18.09;54.88;100841.81;5035239;28;45364;-66
2021/07/31 01:02:48;;;;;;;;;1.67;0.67;;;;;18.04;55.07;100845.97;5037650;28;45432;-65
2021/07/31 01:05:14;;;;;;;;;2.33;1.33;;;;;17.97;55.20;100846.59;5037490;28;46120;-65
2021/07/31 01:07:42;;;;;;;;;0.67;0.67;;;;;17.95;55.42;100853.06;5035303;28;45483;-65
2021/07/31 01:10:07;;;;;;;;;3.00;0.67;;;;;17.89;55.34;100854.50;5034159;28;45994;-65
2021/07/31 01:12:34;;;;;;;;;1.00;1.00;;;;;17.85;55.96;100853.16;5033757;28;45341;-65
2021/07/31 01:15:00;;;;;;;;;0.67;0.67;;;;;18.00;56.11;100852.59;5031039;28;47217;-65
2021/07/31 01:17:26;;;;;;;;;0.67;0.67;;;;;18.02;55.77;100850.59;5031777;28;45673;-64
2021/07/31 01:19:51;;;;;;;;;2.33;2.33;;;;;17.94;55.94;100844.28;5026897;28;45579;-65
2021/07/31 01:22:17;;;;;;;;;4.00;1.67;;;;;17.99;56.25;100843.78;5027043;28;45624;-65
2021/07/31 01:24:42;;;;;;;;;2.00;2.00;;;;;18.01;56.63;100843.59;5034193;28;45467;-64
2021/07/31 01:27:07;;;;;;;;;5.33;1.67;;;;;18.06;56.16;100842.16;5032295;28;45584;-65
2021/07/31 01:29:33;;;;;;;;;1.67;1.67;;;;;18.09;56.21;100841.00;5034157;28;45590;-64
2021/07/31 01:31:58;;;;;;;;;1.33;1.33;;;;;18.09;55.91;100849.78;5032599;28;45621;-67
2021/07/31 01:34:24;;;;;;;;;1.67;1.67;;;;;17.98;56.57;100839.44;5033686;28;45564;-67
2021/07/31 01:36:49;;;;;;;;;1.67;0.67;;;;;18.00;56.63;100841.97;5032250;28;45638;-68
2021/07/31 01:39:15;;;;;;;;;1.67;1.67;;;;;17.94;56.32;100844.28;5032931;28;45340;-66
2021/07/31 01:41:41;;;;;;;;;4.33;2.00;;;;;17.93;57.24;100834.63;5021742;28;45460;-65
2021/07/31 01:44:06;;;;;;;;;2.67;1.67;;;;;18.02;57.14;100846.13;5032696;28;47192;-67
2021/07/31 01:46:31;;;;;;;;;1.67;1.67;;;;;18.12;56.80;100848.63;5028560;28;45506;-69
2021/07/31 01:48:57;;;;;;;;;1.00;1.00;;;;;18.10;56.49;100848.00;5029988;28;45776;-65
2021/07/31 01:51:22;;;;;;;;;3.00;1.67;;;;;18.01;56.70;100849.78;5033123;28;45447;-66
2021/07/31 01:53:47;;;;;;;;;2.33;2.33;;;;;17.91;57.07;100839.22;5030968;28;47365;-67
2021/07/31 01:56:13;;;;;;;;;1.67;1.67;;;;;17.94;57.20;100848.72;5017918;28;47315;-64
2021/07/31 01:58:38;;;;;;;;;3.00;2.00;;;;;17.89;57.12;100846.53;5027075;28;45531;-65
2021/07/31 02:01:03;;;;;;;;;5.00;2.00;;;;;17.81;57.34;100849.13;5033223;28;45362;-65
2021/07/31 02:03:29;;;;;;;;;1.33;1.33;;;;;17.84;57.40;100846.19;5032986;28;45917;-65
2021/07/31 02:05:55;;;;;;;;;2.00;2.00;;;;;17.77;57.06;100842.47;5034880;28;45463;-66
2021/07/31 02:08:21;;;;;;;;;2.67;2.67;;;;;17.72;57.32;100844.78;5034377;28;45424;-66
2021/07/31 02:10:46;;;;;;;;;6.00;1.33;;;;;17.67;57.68;100839.94;5030052;28;45341;-64
2021/07/31 02:13:11;;;;;;;;;2.33;1.33;;;;;17.71;57.87;100843.09;5025918;28;45431;-64
2021/07/31 02:15:41;;;;;;;;;2.33;1.00;;;;;17.69;58.28;100839.78;5034404;28;45440;-65
2021/07/31 02:18:07;;;;;;;;;2.00;2.00;;;;;17.72;57.86;100839.47;5034992;28;45400;-67
2021/07/31 02:20:32;;;;;;;;;2.67;2.33;;;;;17.74;58.03;100837.50;5028793;28;45636;-67
2021/07/31 02:22:57;;;;;;;;;3.67;2.33;;;;;17.72;57.59;100834.16;5033363;28;46285;-67
2021/07/31 02:25:23;;;;;;;;;2.00;2.00;;;;;17.63;58.20;100833.25;5033860;28;45234;-67
2021/07/31 02:27:50;;;;;;;;;3.33;2.00;;;;;17.53;58.42;100836.03;5033693;28;45550;-66
2021/07/31 02:30:16;;;;;;;;;2.33;1.33;;;;;17.44;58.56;100835.16;5034667;28;45312;-68
2021/07/31 02:32:41;;;;;;;;;2.33;1.67;;;;;17.45;58.59;100833.34;5034877;28;45600;-67
2021/07/31 02:35:08;;;;;;;;;2.00;2.00;;;;;17.44;58.89;100834.34;5034251;28;45394;-66
2021/07/31 02:37:33;;;;;;;;;4.00;1.33;;;;;17.44;58.94;100826.38;5034258;28;45286;-67
2021/07/31 02:39:58;;;;;;;;;2.00;2.00;;;;;17.40;59.01;100830.34;5033724;28;45466;-66
2021/07/31 02:42:23;;;;;;;;;2.67;1.67;;;;;17.41;59.08;100826.66;5046457;28;47375;-69
2021/07/31 02:44:49;;;;;;;;;4.33;2.33;;;;;17.28;58.82;100822.63;5035059;28;45271;-67
2021/07/31 02:47:14;;;;;;;;;3.00;2.00;;;;;17.19;59.15;100820.03;5034401;28;45770;-70
2021/07/31 02:49:40;;;;;;;;;2.33;2.00;;;;;17.32;59.44;100823.97;5033860;28;45511;-68
2021/07/31 02:52:05;;;;;;;;;4.67;1.00;;;;;17.33;59.22;100824.78;5031865;28;46693;-65
2021/07/31 02:54:31;;;;;;;;;2.00;2.00;;;;;17.27;59.67;100818.28;5033069;28;45556;-69
2021/07/31 02:56:56;;;;;;;;;5.00;2.00;;;;;17.24;59.61;100826.56;5034444;28;45745;-69
2021/07/31 02:59:21;;;;;;;;;5.33;2.00;;;;;17.20;60.11;100819.88;5034747;28;45549;-70
2021/07/31 03:01:47;;;;;;;;;1.33;1.33;;;;;17.16;59.86;100813.22;5039184;28;45361;-69
2021/07/31 03:04:12;;;;;;;;;2.67;2.00;;;;;17.16;60.10;100818.53;5038200;28;45348;-69
2021/07/31 03:06:37;;;;;;;;;2.00;2.00;;;;;17.25;60.55;100822.91;5035009;28;45467;-70
2021/07/31 03:09:03;;;;;;;;;2.67;2.00;;;;;17.29;59.80;100816.31;5036565;28;45479;-71
2021/07/31 03:11:28;;;;;;;;;3.33;1.67;;;;;17.26;59.77;100819.28;5021923;28;45752;-70
2021/07/31 03:13:53;;;;;;;;;1.00;1.00;;;;;17.22;59.62;100822.41;5024851;28;45439;-71
2021/07/31 03:16:19;;;;;;;;;3.67;3.00;;;;;17.15;60.21;100819.50;5034204;28;45362;-71
2021/07/31 03:18:44;;;;;;;;;2.33;2.00;;;;;17.13;60.07;100813.53;5031982;28;45517;-70
2021/07/31 03:21:11;;;;;;;;;4.33;2.00;;;;;17.07;60.36;100814.16;5033495;28;47100;-70
2021/07/31 03:23:36;;;;;;;;;1.33;1.33;;;;;17.05;60.38;100816.16;5034274;28;45440;-71
2021/07/31 03:26:02;;;;;;;;;2.00;2.00;;;;;16.95;60.47;100817.03;5033862;28;45474;-70
2021/07/31 03:28:29;;;;;;;;;6.67;3.00;;;;;16.91;60.74;100825.47;5033927;28;45461;-71
2021/07/31 03:30:55;;;;;;;;;5.33;3.67;;;;;16.84;61.00;100819.94;5033897;28;47183;-73
2021/07/31 03:33:21;;;;;;;;;4.00;1.00;;;;;16.86;61.12;100828.56;5034420;28;45409;-70
2021/07/31 03:35:46;;;;;;;;;2.67;2.67;;;;;16.85;61.46;100820.75;5037238;28;45563;-69
2021/07/31 03:38:12;;;;;;;;;3.33;2.00;;;;;16.83;61.29;100821.72;5034470;28;45824;-69
2021/07/31 03:40:38;;;;;;;;;6.00;4.00;;;;;16.87;61.36;100819.63;5028236;28;46158;-69
2021/07/31 03:43:04;;;;;;;;;7.00;6.00;;;;;16.90;61.48;100824.63;5026554;28;45325;-69
2021/07/31 03:45:29;;;;;;;;;4.00;3.00;;;;;16.86;61.35;100828.56;5037293;28;45362;-70
2021/07/31 03:47:54;;;;;;;;;5.67;4.33;;;;;16.83;61.16;100828.88;5037440;28;45314;-70
2021/07/31 03:50:20;;;;;;;;;4.00;2.00;;;;;16.79;61.42;100822.22;5033373;28;46286;-69
2021/07/31 03:52:46;;;;;;;;;3.67;2.33;;;;;16.78;61.84;100816.03;5035805;28;45319;-69
2021/07/31 03:55:12;;;;;;;;;2.00;2.00;;;;;16.82;61.23;100837.81;5047278;28;45654;-70
2021/07/31 03:57:37;;;;;;;;;4.67;2.67;;;;;16.83;61.48;100834.16;5048055;28;45578;-70
2021/07/31 04:00:04;;;;;;;;;5.00;3.00;;;;;16.80;61.55;100840.63;5036838;28;46082;-69
2021/07/31 04:02:30;;;;;;;;;2.33;2.33;;;;;16.75;61.33;100836.72;5037411;28;45531;-69
2021/07/31 04:04:55;;;;;;;;;5.00;2.00;;;;;16.70;61.54;100846.97;5036690;28;45456;-69
2021/07/31 04:07:21;;;;;;;;;4.00;2.00;;;;;16.64;61.87;100846.59;5036288;28;45781;-70
2021/07/31 04:09:46;;;;;;;;;3.00;2.00;;;;;16.59;62.02;100837.41;5036012;28;52353;-69
2021/07/31 04:12:11;;;;;;;;;2.33;2.00;;;;;16.56;62.06;100851.00;5037192;28;45324;-71
2021/07/31 04:14:37;;;;;;;;;3.00;2.00;;;;;16.50;62.46;100840.00;5037145;28;45290;-70
2021/07/31 04:17:02;;;;;;;;;2.00;2.00;;;;;16.52;62.53;100842.50;5035019;28;53297;-69
2021/07/31 04:19:28;;;;;;;;;4.00;2.00;;;;;16.59;62.37;100834.75;5036057;28;47293;-70
2021/07/31 04:21:56;;;;;;;;;2.00;2.00;;;;;16.60;62.44;100841.75;5034974;28;45920;-69
2021/07/31 04:24:24;;;;;;;;;5.00;2.00;;;;;16.60;62.30;100831.97;5037327;28;45436;-69
2021/07/31 04:26:50;;;;;;;;;2.33;2.00;;;;;16.60;62.42;100839.09;5035072;28;45337;-70
2021/07/31 04:29:15;;;;;;;;;3.00;2.00;;;;;16.55;62.52;100842.19;5037576;28;47345;-70
2021/07/31 04:31:41;;;;;;;;;5.33;3.00;;;;;16.56;62.76;100843.03;5036494;28;45474;-69
2021/07/31 04:34:06;;;;;;;;;3.33;3.33;;;;;16.57;62.35;100844.72;5037345;28;45298;-69
2021/07/31 04:36:32;;;;;;;;;6.67;2.33;;;;;16.56;63.10;100843.84;5049897;28;52071;-69
2021/07/31 04:38:58;;;;;;;;;3.67;2.00;;;;;16.57;62.66;100840.22;5036879;28;45322;-69
2021/07/31 04:41:23;;;;;;;;;1.67;1.67;;;;;16.61;63.14;100849.53;5036600;28;45620;-70
2021/07/31 04:43:49;;;;;;;;;3.33;1.33;;;;;16.63;62.40;100841.44;5036681;28;45501;-71
2021/07/31 04:46:14;;;;;;;;;2.00;2.00;;;;;16.60;62.42;100844.41;5035140;28;45303;-69
2021/07/31 04:48:39;;;;;;;;;3.33;2.67;;;;;16.60;62.96;100845.22;5036031;28;46312;-70
2021/07/31 04:51:05;;;;;;;;;3.00;3.00;;;;;16.65;62.55;100848.25;5039073;28;45478;-70
2021/07/31 04:53:31;;;;;;;;;2.67;2.00;;;;;16.68;62.45;100849.78;5037087;28;45357;-70
2021/07/31 04:55:57;;;;;;;;;2.00;0.33;;;;;16.66;62.81;100846.44;5036286;28;45588;-69
2021/07/31 04:58:23;;;;;;;;;3.33;2.00;;;;;16.64;62.88;100846.59;5036417;28;47308;-69
2021/07/31 05:00:49;;;;;;;;;5.00;3.00;;;;;16.62;63.05;100843.25;5034998;28;45380;-70
2021/07/31 05:03:15;;;;;;;;;4.00;3.00;;;;;16.63;62.83;100839.63;5036606;28;45456;-69
2021/07/31 05:05:42;;;;;;;;;3.33;3.33;;;;;16.69;62.59;100842.66;5036324;28;45482;-70
2021/07/31 05:08:07;;;;;;;;;5.00;3.00;;;;;16.69;63.04;100848.78;5035896;28;46982;-68
2021/07/31 05:10:32;;;;;;;;;5.00;3.00;;;;;16.71;63.08;100845.97;5036058;28;45783;-69
2021/07/31 05:12:58;;;;;;;;;2.00;2.00;;;;;16.76;63.16;100849.00;5036061;28;45322;-69
2021/07/31 05:15:23;;;;;;;;;3.33;2.67;;;;;16.83;62.95;100858.03;5036489;28;45525;-70
2021/07/31 05:17:49;;;;;;;;;4.67;3.00;;;;;16.87;63.41;100854.09;5036380;28;46428;-68
2021/07/31 05:20:14;;;;;;;;;2.00;2.00;;;;;16.97;62.59;100852.22;5035604;28;45408;-69
2021/07/31 05:22:39;;;;;;;;;4.00;2.67;;;;;16.99;62.38;100850.28;5035997;28;45525;-69
2021/07/31 05:25:05;;;;;;;;;7.33;3.67;;;;;16.99;62.87;100852.94;5036463;28;45432;-70
2021/07/31 05:27:30;;;;;;;;;3.67;3.00;;;;;17.02;62.69;100848.28;5039628;28;45986;-69
2021/07/31 05:29:55;;;;;;;;;3.33;3.33;;;;;17.08;62.66;100847.69;5039918;28;45421;-68
2021/07/31 05:32:21;;;;;;;;;5.00;2.00;;;;;17.19;62.40;100851.91;5038197;28;45494;-70
2021/07/31 05:34:46;;;;;;;;;2.67;2.67;;;;;17.24;62.29;100854.91;5035367;28;45572;-71
2021/07/31 05:37:11;;;;;;;;;3.00;3.00;;;;;17.31;62.01;100854.16;5036275;28;45449;-69
2021/07/31 05:39:37;;;;;;;;;2.00;2.00;;;;;17.34;62.13;100855.66;5036439;28;45467;-71
2021/07/31 05:42:05;;;;;;;;;2.00;2.00;;;;;17.44;61.93;100859.06;5039813;28;45333;-69
2021/07/31 05:44:31;;;;;;;;;5.33;2.67;;;;;17.81;61.68;100860.63;5039151;28;45401;-70
2021/07/31 05:46:57;;;;;;;;;3.00;2.67;;;;;18.16;60.69;100865.09;5038330;28;47030;-70
2021/07/31 05:49:22;;;;;;;;;3.33;3.33;;;;;18.37;60.39;100877.97;5038999;28;51522;-69
2021/07/31 05:51:47;;;;;;;;;6.00;3.00;;;;;18.74;59.65;100866.09;5039047;28;45515;-68
2021/07/31 05:54:12;;;;;;;;;2.33;2.00;;;;;19.20;58.59;100866.50;5037266;28;45435;-69
2021/07/31 05:56:38;;;;;;;;;4.00;2.00;;;;;19.76;58.18;100863.06;5036625;28;45892;-69
2021/07/31 05:59:03;;;;;;;;;12.00;11.00;;;;;20.45;56.54;100865.13;5035307;28;49057;-68
2021/07/31 06:01:34;;;;;;;;;11.67;9.00;;;;;21.12;55.07;100874.38;5034987;28;45534;-68
2021/07/31 06:04:00;;;;;;;;;6.00;6.00;;;;;21.49;53.48;100869.19;5034351;28;45218;-70
2021/07/31 06:06:25;;;;;;;;;35.33;27.33;;;;;21.40;52.98;100871.09;5034873;28;46991;-68
2021/07/31 06:08:50;;;;;;;;;6.00;6.00;;;;;21.06;53.11;100870.56;5035857;28;45342;-70
2021/07/31 06:11:16;;;;;;;;;2.00;2.00;;;;;20.65;53.66;100868.16;5035217;28;45447;-69
2021/07/31 06:13:41;;;;;;;;;4.00;2.33;;;;;20.25;53.86;100860.25;5035259;28;45430;-70
2021/07/31 06:16:08;;;;;;;;;3.00;2.00;;;;;20.10;54.58;100873.47;5033107;28;47253;-69
2021/07/31 06:18:34;;;;;;;;;2.00;2.00;;;;;19.83;54.79;100871.25;5035161;28;45485;-70
2021/07/31 06:20:59;;;;;;;;;4.00;3.00;;;;;19.57;55.33;100867.75;5035562;28;45456;-70
2021/07/31 06:23:24;;;;;;;;;3.00;2.33;;;;;19.46;56.10;100876.94;5035420;28;45321;-70
2021/07/31 06:25:50;;;;;;;;;2.33;2.00;;;;;19.31;56.13;100878.63;5034406;28;55709;-70
2021/07/31 06:28:15;;;;;;;;;3.00;3.00;;;;;19.15;56.58;100884.78;5035125;28;45439;-69
2021/07/31 06:30:44;;;;;;;;;5.00;3.33;;;;;19.02;56.61;100882.63;5037090;28;45633;-71
2021/07/31 06:33:10;;;;;;;;;6.67;3.67;;;;;18.87;57.09;100887.72;5036022;28;45650;-69
2021/07/31 06:35:36;;;;;;;;;2.33;2.00;;;;;18.75;57.60;100894.38;5036164;28;45485;-69
2021/07/31 06:38:02;;;;;;;;;4.33;3.33;;;;;18.75;57.95;100897.03;5035311;28;45336;-70
2021/07/31 06:40:27;;;;;;;;;6.33;4.00;;;;;18.76;58.00;100885.38;5033787;28;45536;-69
2021/07/31 06:42:52;;;;;;;;;5.67;3.33;;;;;18.77;58.06;100892.38;5035100;28;45395;-69
2021/07/31 06:45:18;;;;;;;;;12.67;10.67;;;;;18.76;58.12;100894.22;5033836;28;45454;-69
2021/07/31 06:47:43;;;;;;;;;2.00;2.00;;;;;18.80;58.07;100884.06;5035638;28;45395;-69
2021/07/31 06:50:10;;;;;;;;;5.33;2.67;;;;;18.85;58.03;100884.41;5034441;28;45992;-69
2021/07/31 06:52:37;;;;;;;;;2.67;2.67;;;;;18.87;57.94;100890.38;5034492;28;45616;-69
2021/07/31 06:55:02;;;;;;;;;5.67;3.00;;;;;18.89;58.58;100888.44;5034143;28;46866;-70
2021/07/31 06:57:27;;;;;;;;;4.00;4.00;;;;;18.98;58.17;100888.44;5034202;28;45542;-69
2021/07/31 06:59:53;;;;;;;;;30.67;24.67;;;;;19.05;57.95;100889.44;5034984;28;45805;-70
2021/07/31 07:02:18;;;;;;;;;5.33;3.67;;;;;19.07;57.84;100890.09;5033610;28;47359;-69
2021/07/31 07:04:43;;;;;;;;;6.00;3.00;;;;;19.11;57.79;100889.63;5034286;28;46354;-70
2021/07/31 07:07:09;;;;;;;;;4.67;3.00;;;;;19.13;57.86;100886.78;5033769;28;45251;-70
2021/07/31 07:09:34;;;;;;;;;2.00;2.00;;;;;19.15;57.66;100897.25;5037572;28;45176;-69
2021/07/31 07:11:59;;;;;;;;;2.33;2.00;;;;;19.16;57.63;100891.75;5038508;28;45447;-70
2021/07/31 07:14:25;;;;;;;;;2.00;2.00;;;;;19.21;57.65;100893.94;5031966;28;46890;-69
2021/07/31 07:16:50;;;;;;;;;5.00;4.00;;;;;19.22;57.80;100892.94;5038077;28;45341;-70
2021/07/31 07:19:15;;;;;;;;;3.00;3.00;;;;;19.28;57.36;100900.28;5036614;28;50228;-70
2021/07/31 07:21:40;;;;;;;;;5.33;5.00;;;;;19.29;57.60;100892.09;5041840;28;45350;-70
2021/07/31 07:24:06;;;;;;;;;5.00;3.00;;;;;19.27;57.18;100899.41;5038089;28;45471;-70
2021/07/31 07:26:31;;;;;;;;;3.67;3.00;;;;;19.27;57.29;100895.94;5039231;28;45445;-69
2021/07/31 07:28:56;;;;;;;;;3.00;3.00;;;;;19.30;57.13;100906.25;5038945;28;45700;-70
2021/07/31 07:31:22;;;;;;;;;3.67;3.00;;;;;19.27;56.95;100895.94;5039246;28;45330;-69
2021/07/31 07:33:47;;;;;;;;;3.67;3.67;;;;;19.34;56.78;100906.75;5039869;28;46293;-70
2021/07/31 07:36:17;;;;;;;;;4.67;3.00;;;;;19.34;56.98;100904.09;5039056;28;45384;-70
2021/07/31 07:38:46;;;;;;;;;5.00;3.00;;;;;19.33;56.42;100897.09;5038805;28;45439;-68
2021/07/31 07:41:14;;;;;;;;;6.67;5.00;;;;;19.30;56.48;100903.59;5037771;28;45444;-70
2021/07/31 07:43:40;;;;;;;;;3.00;3.00;;;;;19.34;56.46;100904.09;5031819;28;46259;-71
2021/07/31 07:46:06;;;;;;;;;4.67;2.00;;;;;19.36;56.32;100908.25;5038757;28;45591;-69
2021/07/31 07:48:32;;;;;;;;;5.00;4.00;;;;;19.38;56.38;100905.41;5039145;28;45336;-70
2021/07/31 07:50:57;;;;;;;;;5.67;4.67;;;;;19.49;56.46;100904.25;5037661;28;45479;-69
2021/07/31 07:53:23;;;;;;;;;4.00;3.67;;;;;19.54;55.94;100902.75;5037789;28;46261;-70
2021/07/31 07:55:48;;;;;;;;;5.00;4.33;;;;;19.57;56.17;100902.38;5037830;28;45278;-69
2021/07/31 07:58:13;;;;;;;;;5.33;4.00;;;;;19.58;55.99;100903.25;5037818;28;45279;-70
2021/07/31 08:00:42;;;;;;;;;4.33;2.67;;;;;19.63;55.71;100903.56;5038812;28;45154;-69
2021/07/31 08:03:08;;;;;;;;;5.00;3.00;;;;;19.68;55.58;100895.03;5038384;28;46302;-69
2021/07/31 08:05:36;;;;;;;;;6.00;4.33;;;;;19.75;55.14;100906.69;5037712;28;45767;-69
2021/07/31 08:08:04;;;;;;;;;4.33;3.00;;;;;19.76;55.44;100905.72;5037165;28;45427;-71
2021/07/31 08:10:29;;;;;;;;;4.67;4.00;;;;;19.70;55.26;100895.72;5036920;28;45543;-70
2021/07/31 08:12:55;;;;;;;;;5.00;5.00;;;;;19.67;55.23;100894.22;5029926;28;45500;-70
2021/07/31 08:15:20;;;;;;;;;3.00;3.00;;;;;19.64;54.95;100905.19;5036702;28;45392;-69
2021/07/31 08:17:45;;;;;;;;;4.00;3.00;;;;;19.60;55.40;100910.06;5037694;28;45392;-70
2021/07/31 08:20:11;;;;;;;;;3.67;3.67;;;;;19.55;55.38;100912.41;5035722;28;45354;-70
2021/07/31 08:22:37;;;;;;;;;5.00;5.00;;;;;19.49;55.77;100902.41;5039611;28;45269;-69
2021/07/31 08:25:02;;;;;;;;;3.00;3.00;;;;;19.57;55.68;100920.22;5039586;28;45320;-69
2021/07/31 08:27:27;;;;;;;;;6.67;4.67;;;;;19.62;55.03;100897.38;5036458;28;45397;-70
2021/07/31 08:29:53;;;;;;;;;3.00;3.00;;;;;19.72;55.19;100902.53;5038404;28;45217;-69
2021/07/31 08:32:18;;;;;;;;;8.33;3.67;;;;;19.76;54.61;100908.38;5036245;28;46029;-70
2021/07/31 08:34:43;;;;;;;;;4.67;3.67;;;;;19.74;55.00;100907.69;5035883;28;46281;-70
2021/07/31 08:37:10;;;;;;;;;3.33;3.33;;;;;19.76;54.83;100908.38;5036108;28;45365;-69
2021/07/31 08:39:37;;;;;;;;;5.00;3.67;;;;;19.77;54.80;100899.34;5036130;28;45514;-69
2021/07/31 08:42:05;;;;;;;;;2.33;2.33;;;;;19.81;54.97;100906.03;5034661;28;46350;-70
2021/07/31 08:44:32;;;;;;;;;5.33;3.00;;;;;19.87;54.69;100909.88;5031179;28;45865;-69
2021/07/31 08:47:01;;;;;;;;;4.67;4.00;;;;;19.92;54.28;100908.34;5036115;28;45385;-68
2021/07/31 08:49:26;;;;;;;;;9.33;6.33;;;;;20.03;54.28;100903.66;5035529;28;45543;-69
2021/07/31 08:51:52;;;;;;;;;5.00;3.67;;;;;20.14;54.01;100905.94;5034713;28;46167;-70
2021/07/31 08:54:18;;;;;;;;;6.00;4.00;;;;;20.25;54.54;100912.72;5036919;28;45336;-70
2021/07/31 08:56:43;;;;;;;;;5.00;4.00;;;;;20.33;53.47;100909.19;5036961;28;45340;-68
2021/07/31 08:59:09;;;;;;;;;3.67;2.67;;;;;20.36;53.56;100908.88;5036695;28;45455;-71
2021/07/31 09:01:35;;;;;;;;;4.00;3.00;;;;;20.35;53.38;100907.19;5036194;28;46427;-69
2021/07/31 09:04:15;;;;;;;;;4.00;4.00;;;;;20.38;53.03;100907.69;5037012;28;45378;-69
2021/07/31 09:06:40;;;;;;;;;4.00;4.00;;;;;20.43;53.74;100904.47;5036552;28;45497;-69
2021/07/31 09:09:06;;;;;;;;;13.33;10.00;;;;;20.50;53.45;100915.28;5036345;28;45395;-70
2021/07/31 09:11:32;;;;;;;;;11.00;6.00;;;;;20.60;53.45;100919.41;5036395;28;45523;-68
2021/07/31 09:14:09;;;;;;;;;5.67;4.33;;;;;20.68;52.54;100921.22;5035810;28;45499;-73
2021/07/31 09:16:35;;;;;;;;;5.33;4.00;;;;;20.65;52.36;100918.06;5036095;28;45230;-70
2021/07/31 09:19:05;;;;;;;;;6.00;3.00;;;;;20.61;52.64;100917.56;5036591;28;45455;-69
2021/07/31 09:21:31;;;;;;;;;5.00;3.00;;;;;20.64;52.79;100921.72;5035680;28;47158;-69
2021/07/31 09:23:56;;;;;;;;;6.00;4.00;;;;;20.68;52.57;100910.53;5036302;28;45426;-70
2021/07/31 09:26:25;;;;;;;;;4.00;3.00;;;;;20.76;52.53;100910.50;5035582;28;45516;-69
2021/07/31 09:29:08;;;;;;;;;4.33;3.33;;;;;20.91;52.31;100913.25;5035774;28;45542;-70
2021/07/31 09:31:35;;;;;;;;;4.00;3.33;;;;;20.97;51.15;100910.88;5034998;28;46559;-68
2021/07/31 09:34:02;;;;;;;;;4.67;4.00;;;;;20.94;51.44;100902.22;5035687;28;45391;-69
2021/07/31 09:36:41;;;;;;;;;5.00;5.00;;;;;20.94;51.24;100891.53;5036044;28;45296;-69
2021/07/31 09:39:10;;;;;;;;;0.00;0.00;;;;;20.97;51.39;100894.84;5035967;28;45354;-70
2021/07/31 09:41:40;;;;;;;;;7.33;4.00;;;;;20.97;51.36;100889.53;5034410;28;46694;-68
2021/07/31 09:44:06;;;;;;;;;5.00;4.67;;;;;20.97;51.36;100892.19;5035841;28;45589;-69
2021/07/31 09:46:34;;;;;;;;;4.00;4.00;;;;;20.99;51.00;100887.47;5036090;28;45389;-69
2021/07/31 09:49:01;;;;;;;;;3.00;3.00;;;;;20.97;50.66;100884.19;5035932;28;45430;-69
2021/07/31 09:51:42;;;;;;;;;6.00;6.00;;;;;20.94;51.56;100880.84;5036232;28;45646;-69
2021/07/31 09:54:10;;;;;;;;;1.33;1.33;;;;;20.99;51.38;100892.81;5035849;28;45580;-69
2021/07/31 09:56:56;;;;;;;;;5.33;4.33;;;;;21.05;51.61;100881.44;5034615;28;45549;-69
2021/07/31 09:59:22;;;;;;;;;2.00;2.00;;;;;21.16;50.55;100877.50;5034336;28;47284;-68
2021/07/31 10:01:57;;;;;;;;;2.67;2.67;;;;;21.34;51.02;100870.00;5034382;28;46293;-70
2021/07/31 10:04:23;;;;;;;;;6.67;3.00;;;;;21.54;50.28;100854.28;5035231;28;45298;-70
2021/07/31 10:06:49;;;;;;;;;4.00;4.00;;;;;21.77;49.75;100858.75;5035243;28;45424;-69
2021/07/31 10:09:14;;;;;;;;;4.33;4.00;;;;;21.93;49.63;100869.22;5034595;28;49211;-69
2021/07/31 10:11:41;;;;;;;;;3.67;3.67;;;;;22.00;48.88;100865.81;5035816;28;45359;-67
2021/07/31 10:14:08;;;;;;;;;5.00;2.00;;;;;22.04;48.48;100861.75;5034968;28;45318;-70
2021/07/31 10:16:37;;;;;;;;;2.33;2.33;;;;;22.07;48.53;100867.56;5035291;28;45312;-68
2021/07/31 10:19:06;;;;;;;;;5.00;4.00;;;;;22.04;48.59;100859.06;5037158;28;45241;-69
2021/07/31 10:21:45;;;;;;;;;2.67;2.67;;;;;22.02;47.89;100853.09;5039159;28;45485;-69
2021/07/31 10:24:10;;;;;;;;;4.67;3.33;;;;;22.05;48.37;100860.72;5036462;28;45233;-69
2021/07/31 10:26:37;;;;;;;;;5.67;3.67;;;;;22.05;48.14;100860.72;5035753;28;45939;-69
2021/07/31 10:29:27;;;;;;;;;2.00;1.67;;;;;22.07;48.19;100861.38;5035684;28;45334;-69
2021/07/31 10:31:54;;;;;;;;;5.33;3.00;;;;;22.12;47.94;100855.47;5034891;28;46410;-68
2021/07/31 10:34:48;;;;;;;;;3.00;3.00;;;;;22.15;47.29;100855.91;5034975;28;45296;-68
2021/07/31 10:37:31;;;;;;;;;3.00;3.00;;;;;22.14;48.13;100848.91;5034623;28;45554;-69
2021/07/31 10:40:09;;;;;;;;;4.00;2.67;;;;;22.14;47.49;100859.59;5034214;28;45545;-68
2021/07/31 10:42:52;;;;;;;;;5.00;5.00;;;;;22.11;47.63;100851.13;5031272;28;45539;-69
2021/07/31 10:45:22;;;;;;;;;4.00;3.00;;;;;22.09;47.28;100857.50;5033911;28;45503;-69
2021/07/31 10:47:58;;;;;;;;;5.00;3.00;;;;;22.07;47.27;100848.84;5035272;28;45441;-69
2021/07/31 10:52:56;;;;;;;;;3.33;2.00;;;;;22.17;47.28;100853.91;5029431;28;45588;-70
2021/07/31 10:55:22;;;;;;;;;3.00;3.00;;;;;22.22;46.93;100848.81;5032833;28;45486;-72
2021/07/31 10:57:53;;;;;;;;;3.00;3.00;;;;;22.25;47.40;100843.06;5032351;28;45512;-71
2021/07/31 11:00:27;;;;;;;;;5.67;2.67;;;;;22.34;46.38;100841.13;5033841;28;45261;-71
2021/07/31 11:02:53;;;;;;;;;3.67;3.00;;;;;22.40;46.33;100851.09;5030411;28;46992;-71
2021/07/31 11:05:20;;;;;;;;;4.33;3.00;;;;;22.46;46.63;100843.31;5033611;28;45474;-69
2021/07/31 11:07:57;;;;;;;;;3.33;3.33;;;;;22.50;46.67;100853.47;5032985;28;45396;-70
2021/07/31 11:10:31;;;;;;;;;3.00;3.00;;;;;22.53;45.89;100858.44;5033775;28;45480;-71
2021/07/31 11:12:57;;;;;;;;;2.00;2.00;;;;;22.46;46.26;100846.84;5032511;28;46452;-65
2021/07/31 11:15:23;;;;;;;;;4.00;4.00;;;;;22.46;46.85;100846.84;5026478;28;45564;-65
2021/07/31 11:17:56;;;;;;;;;4.00;4.00;;;;;22.50;47.00;100849.97;5033954;28;45273;-67
2021/07/31 11:20:28;;;;;;;;;3.00;3.00;;;;;22.52;47.11;100848.75;5033161;28;45614;-66
2021/07/31 11:22:55;;;;;;;;;1.00;0.33;;;;;22.54;47.55;100840.53;5033669;28;45434;-64
2021/07/31 11:25:22;;;;;;;;;3.33;3.33;;;;;22.57;47.02;100838.31;5033379;28;45420;-64